CheckWX is a tool to help pilots better visualize weather data.  It is not intended as a substitute for an official pre-flight weather briefing.

09:09:53 UTC

KSFO METAR
San Francisco International Airport
San Francisco, California, USA
Current

14 mins ago

KSFO 060856Z 00000KT 10SM FEW031 BKN037 BKN048 14/11 A3004 RMK AO2 SLP171 T01440111 51004 $
Observed
Dec-6 @ 08:56 UTC
Visibility
10 SM
Flight Rules
VFR
Cloud Levels
  • Few at 3,100' AGL
  • Broken at 3,700' AGL
  • Broken at 4,800' AGL
Temperature
14°C / 57°F
Dewpoint
11°C / 52°F
Humidity
82%
Altimeter
30.04" Hg
Pressure
1017.32 hPa
Previous

1 hour ago

KSFO 060756Z 08006KT 10SM FEW022 FEW033 BKN045 13/11 A3003 RMK AO2 SLP168 T01330111 401560111 $
Observed
Dec-6 @ 07:56 UTC
Wind
  • 080° at 6 KTS
Visibility
10 SM
Flight Rules
VFR
Cloud Levels
  • Few at 2,200' AGL
  • Few at 3,300' AGL
  • Broken at 4,500' AGL
Temperature
13°C / 55°F
Dewpoint
11°C / 52°F
Humidity
88%
Altimeter
30.03" Hg
Pressure
1016.92 hPa
Previous

2 hours ago

KSFO 060656Z 00000KT 10SM FEW017 SCT033 BKN048 14/11 A3003 RMK AO2 SLP169 T01390106 $
Observed
Dec-6 @ 06:56 UTC
Visibility
10 SM
Flight Rules
VFR
Cloud Levels
  • Few at 1,700' AGL
  • Scattered at 3,300' AGL
  • Broken at 4,800' AGL
Temperature
14°C / 57°F
Dewpoint
11°C / 52°F
Humidity
82%
Altimeter
30.03" Hg
Pressure
1016.92 hPa